Tiempo atmosférico en la estación meteorológica de Madrid, Ciudad Universitaria, Madrid (664 m.)



Fecha
DESCASC
Temp. máxima en grados centígrados (hora)
DESCASC
Temp. mínima en grados centígrados (hora)
DESCASC
Temp. media en grados centígrados
DESCASC
Racha de viento máxima en m/sg (hora)
DESCASC
Velocidad máxima media en intervalos de 10 minutos(hora)
DESCASC
Precipitaciones diarias en mm
DESCASC
Precipitaciones de 00:00 a 06:00 en mm
DESCASC
Precipitaciones de 06:00 a 12:00 en mm
DESCASC
Precipitaciones de 12:00 a 18:00 en mm
DESCASC
Precipitaciones de 18:00 a 24:00 en mm
DESCASC
18-08-2019 35.4 (18:40) 17.6 (08:20) 26.5 12.22 (18:50) 6.39 (15:30) 0 0 0 0 0
17-08-2019 37.4 (17:30) 18 (07:40) 27.7 11.11 (16:00) 6.39 (18:30) 0 0 0 0 0
16-08-2019 36.5 (18:30) 20.8 (08:00) 28.6 11.11 (00:30) 5.83 (00:10) 0 0 0 0 0
15-08-2019 36.5 (18:10) 16 (00:00) 26.3 10.56 (23:59) 5.56 (23:59) 0 0 0 0 0
14-08-2019 33.7 (18:20) 14 (00:00) 23.9 7.5 (01:40) 3.89 (01:40) 0 0 0 0 0
13-08-2019 31.2 (18:50) 15.1 (00:00) 23.2 11.94 (00:10) 7.5 (01:00) 0 0 0 0 0
12-08-2019 28.4 (17:20) 12.9 (00:00) 20.6 9.44 (23:59) 5 (23:59) 0 0 0 0 0
11-08-2019 31.1 (16:50) 17.5 (00:00) 24.3 11.39 (18:20) 5.83 (20:30) 0 0 0 0 0
10-08-2019 32.1 (19:00) 16.5 (00:00) 24.3 8.89 (16:00) 5 (18:20) 0 0 0 0 0
09-08-2019 32 (17:10) 21.4 (00:00) 26.7 13.33 (17:40) 7.22 (15:40) 0 0 0 0 0
08-08-2019 34.1 (18:00) 17.4 (00:00) 25.7 11.39 (16:10) 5.28 (18:30) 0 0 0 0 0
07-08-2019 27.9 (18:50) 21.9 (00:00) 24.9 9.72 (19:50) 5.28 (19:50) 0 0 0 0 0
06-08-2019 35.7 (17:20) 18.2 (00:00) 27 9.72 (18:40) 5 (18:40) 0 0 0 0 0
05-08-2019 36.8 (17:40) 18 (00:00) 27.4 10.28 (18:50) 5.28 (17:30) 0 0 0 0 0
04-08-2019 36.4 (16:20) 18.5 (00:00) 27.5 9.17 (15:10) 5 (18:00) 0 0 0 0 0
03-08-2019 36.4 (17:40) 20.1 (00:00) 28.3 9.72 (17:30) 4.17 (20:00) 0 0 0 0 0
02-08-2019 36.5 (17:30) 17.2 (00:00) 26.9 6.94 (17:40) 3.33 (09:10) 0 0 0 0 0
01-08-2019 34.8 (17:10) 20.5 (00:00) 27.6 9.44 (16:50) 3.89 (17:00) 0 0 0 0 0
31-07-2019 34.6 (17:50) 18 (00:00) 26.3 13.33 (01:30) 7.22 (02:10) 0.4 0 0 0 0.4
30-07-2019 31.8 (18:00) 14.3 (00:00) 23 10.28 (23:59) 5.83 (23:59) 0 0 0 0 0
29-07-2019 33.5 (17:20) 15.7 (00:00) 24.6 11.67 (15:50) 5.83 (19:20) 0 0 0 0 0
28-07-2019 30.3 (18:50) 15.3 (00:00) 22.8 7.22 (17:30) 3.89 (08:50) 0 0 0 0 0
27-07-2019 28.8 (17:10) 18.5 (00:00) 23.6 12.22 (18:00) 6.39 (13:50) 0 0 0 0 0
26-07-2019 32.7 (18:20) 22.6 (00:00) 27.7 11.39 (18:00) 5.56 (18:10) 0 0 0 0 0
25-07-2019 36.7 (16:50) 21.5 (00:00) 29.1 10.83 (14:30) 5.28 (19:50) 0 0 0 0 0
24-07-2019 37 (16:00) 19.6 (00:00) 28.3 6.67 (18:10) 2.78 (00:50) 0 0 0 0 0

Gráficas

Temp. máximas Temp. mínimas Temp. medias Precipitaciones Rachas de viento máximas Velocidades máximas media en intervalos de 10 minutos

Datos horarios

Fecha y hora oficial Temperatura (ºC) Velocidad del viento (km/h) Dirección del viento Racha (km/h) Dirección de racha Precipitación (mm) Presión (hPa) Tendencia (hPa) Humedad (%)
2019-08-22 23:00:00 22.6 2 Noroeste 5 Sudeste 0 -- -- 25
2019-08-22 22:00:00 24.5 2 Este 7 Sudeste 0 -- -- 22
2019-08-22 21:00:00 28.2 5 Sudeste 13 Sur 0 -- -- 20
2019-08-22 20:00:00 29.8 4 Sur 13 Sur 0 -- -- 19
2019-08-22 19:00:00 30.8 8 Sudeste 18 Este 0 -- -- 17
2019-08-22 18:00:00 30.8 4 Este 24 Sudeste 0 -- -- 18
2019-08-22 17:00:00 30.8 5 Sudeste 21 Este 0 -- -- 21
2019-08-22 16:00:00 30.4 6 Sudeste 18 Este 0 -- -- 21
2019-08-22 15:00:00 30 3 Este 22 Este 0 -- -- 22
2019-08-22 14:00:00 28.5 4 Sudeste 18 Este 0 -- -- 30
2019-08-22 13:00:00 25.7 5 Este 17 Este 0 -- -- 38
2019-08-22 12:00:00 24.6 7 Este 17 Sudeste 0 -- -- 44
2019-08-22 11:00:00 22.4 7 Este 18 Este 0 -- -- 48
2019-08-22 10:00:00 21.5 10 Este 19 Este 0 -- -- 53
2019-08-22 09:00:00 17.6 0 Calma 14 Nordeste 0 -- -- 76
2019-08-22 08:00:00 15.2 5 Nordeste 15 Nordeste 0 -- -- 82
2019-08-22 07:00:00 15.3 0 Calma 9 Nordeste 0 -- -- 81
2019-08-22 06:00:00 16 4 Nordeste 10 Nordeste 0 -- -- 80
2019-08-22 05:00:00 17.1 0 Calma 13 Este 0 -- -- 77
2019-08-22 04:00:00 17.7 6 Nordeste 14 Este 0 -- -- 79
2019-08-22 03:00:00 17.1 5 Nordeste 10 Nordeste 0 -- -- 80
2019-08-22 02:00:00 17.3 4 Nordeste 12 Nordeste 0 -- -- 83
2019-08-22 01:00:00 17.9 8 Nordeste 14 Nordeste 0 -- -- 83
2019-08-22 00:00:00 18.6 7 Nordeste 19 Sudeste 0.9 -- -- 83
2019-08-21 23:00:00 20.8 13 Sudeste 57 Este 0 -- -- 68
2019-08-21 22:00:00 24.7 4 Sudeste 24 Sudeste 0 -- -- 55
2019-08-21 21:00:00 26.2 9 Sur 25 Sur 0 -- -- 51
2019-08-21 20:00:00 28.6 5 Oeste 11 Sudoeste 0 -- -- 43
2019-08-21 19:00:00 28.8 3 Oeste 9 Oeste 0 -- -- 42
2019-08-21 18:00:00 29.8 0 Calma 15 Oeste 0 -- -- 42
2019-08-21 17:00:00 29.3 6 Este 16 Nordeste 0 -- -- 43
2019-08-21 16:00:00 28.9 2 Este 14 Este 0 -- -- 47
2019-08-21 15:00:00 27.7 3 Sudeste 19 Nordeste 0 -- -- 49
2019-08-21 14:00:00 27.2 5 Nordeste 19 Este 0 -- -- 52
2019-08-21 13:00:00 24.9 5 Este 18 Nordeste 0 -- -- 58
2019-08-21 12:00:00 23 8 Este 16 Nordeste 0 -- -- 61
2019-08-21 11:00:00 21.8 7 Nordeste 17 Nordeste 0 -- -- 61
2019-08-21 10:00:00 21.3 7 Nordeste 17 Este 0 -- -- 61
2019-08-21 09:00:00 20.9 10 Nordeste 21 Este 0 -- -- 62
2019-08-21 08:00:00 20.6 10 Nordeste 19 Nordeste 0 -- -- 62
2019-08-21 07:00:00 20.5 10 Nordeste 19 Este 0 -- -- 61
2019-08-21 06:00:00 20.2 8 Nordeste 18 Nordeste 0 -- -- 61
2019-08-21 05:00:00 20.1 13 Nordeste 23 Nordeste 0 -- -- 60
2019-08-21 04:00:00 20.2 13 Nordeste 28 Este 0 -- -- 59
2019-08-21 03:00:00 20.5 14 Nordeste 28 Nordeste 0 -- -- 58
2019-08-21 02:00:00 20.8 14 Nordeste 28 Nordeste 0 -- -- 58
2019-08-21 01:00:00 21.3 16 Nordeste 27 Nordeste 0 -- -- 57
2019-08-21 00:00:00 22.3 15 Nordeste 35 Este 0 -- -- 55
2019-08-20 23:00:00 23.4 20 Nordeste 36 Este 0 -- -- 51
2019-08-20 22:00:00 24.5 18 Nordeste 33 Este 0 -- -- 47
2019-08-20 21:00:00 26 17 Nordeste 34 Nordeste 0 -- -- 43
2019-08-20 20:00:00 27.9 17 Este 30 Este 0 -- -- 38
2019-08-20 19:00:00 29.1 15 Nordeste 27 Nordeste 0 -- -- 37
2019-08-20 18:00:00 29.4 13 Este 23 Nordeste 0 -- -- 37
2019-08-20 17:00:00 30.3 12 Este 29 Nordeste 0 -- -- 37
2019-08-20 16:00:00 28.8 11 Nordeste 30 Este 0 -- -- 41
2019-08-20 15:00:00 29.6 16 Nordeste 33 Nordeste 0 -- -- 44
2019-08-20 14:00:00 27.3 15 Este 33 Este 0 -- -- 48
2019-08-20 13:00:00 26.5 15 Nordeste 31 Nordeste 0 -- -- 51
2019-08-20 12:00:00 26.3 15 Nordeste 34 Este 0 -- -- 54
2019-08-20 11:00:00 23.2 17 Nordeste 29 Este 0 -- -- 60
2019-08-20 10:00:00 22.5 14 Nordeste 26 Este 0 -- -- 61
2019-08-20 09:00:00 20.4 11 Nordeste 18 Nordeste 0 -- -- 65
2019-08-20 08:00:00 20.2 12 Nordeste 22 Nordeste 0 -- -- 66
2019-08-20 07:00:00 20.3 13 Nordeste 25 Nordeste 0 -- -- 65
2019-08-20 06:00:00 20 10 Nordeste 18 Este 0 -- -- 67
2019-08-20 05:00:00 20.5 6 Nordeste 26 Este 0 -- -- 68
2019-08-20 04:00:00 20.6 6 Nordeste 24 Nordeste 0.1 -- -- 67
2019-08-20 03:00:00 19.7 15 Nordeste 34 Este 0.2 -- -- 71
2019-08-20 02:00:00 22.4 19 Este 32 Nordeste 0 -- -- 52
2019-08-20 01:00:00 23.9 16 Este 35 Este 0 -- -- 47
2019-08-20 00:00:00 25.4 10 Nordeste 25 Nordeste 0 -- -- 40
2019-08-19 23:00:00 25.7 5 Noroeste 9 Noroeste 0 -- -- 40
2019-08-19 22:00:00 26.5 3 Noroeste 9 Noroeste 0 -- -- 38
2019-08-19 21:00:00 28.2 4 Noroeste 23 Oeste 0 -- -- 34
2019-08-19 20:00:00 29.9 14 Oeste 28 Sudoeste 0 -- -- 33
2019-08-19 19:00:00 30.6 17 Oeste 32 Oeste 0 -- -- 33
2019-08-19 18:00:00 31.4 17 Oeste 33 Oeste 0 -- -- 33
2019-08-19 17:00:00 32.7 15 Oeste 31 Sudoeste 0 -- -- 33
2019-08-19 16:00:00 32.3 17 Oeste 34 Oeste 0 -- -- 33
2019-08-19 15:00:00 31.7 6 Sudoeste 29 Sur 0 -- -- 34
2019-08-19 14:00:00 30.9 8 Sudoeste 24 Sudoeste 0 -- -- 35
2019-08-19 13:00:00 30.6 7 Sudoeste 24 Oeste 0 -- -- 38
2019-08-19 12:00:00 27.9 3 Sudeste 17 Sur 0 -- -- 44
2019-08-19 11:00:00 27.5 3 Sur 9 Sur 0 -- -- 45
2019-08-19 10:00:00 25.1 4 Sudoeste 8 Sur 0 -- -- 51
2019-08-19 09:00:00 22.3 0 Calma 5 Norte 0 -- -- 55
2019-08-19 08:00:00 19.4 3 Norte 8 Este 0 -- -- 56
2019-08-19 07:00:00 20.5 0 Calma 13 Este 0 -- -- 53
2019-08-19 06:00:00 23.3 4 Este 14 Este 0 -- -- 48
2019-08-19 05:00:00 22.3 3 Este 10 Este 0 -- -- 49
2019-08-19 04:00:00 21.9 2 Este 6 Oeste 0 -- -- 57
2019-08-19 03:00:00 22.5 4 Nordeste 7 Noroeste 0 -- -- 55
2019-08-19 02:00:00 22.2 0 Calma 9 Oeste 0 -- -- 52
2019-08-19 01:00:00 22.8 5 Oeste 8 Oeste 0 -- -- 45
2019-08-19 00:00:00 23.8 6 Oeste 11 Oeste 0 -- -- 40
2019-08-18 23:00:00 25.1 6 Oeste 12 Sudoeste 0 -- -- 35
2019-08-18 22:00:00 27.8 5 Sudoeste 31 Oeste 0 -- -- 31
2019-08-18 21:00:00 30.2 16 Oeste 35 Oeste 0 -- -- 25
2019-08-18 20:00:00 32.3 15 Sudoeste 35 Sudoeste 0 -- -- 21
2019-08-18 19:00:00 34.9 19 Sudoeste 44 Sudoeste 0 -- -- 21
2019-08-18 18:00:00 35.2 19 Sudoeste 43 Sudoeste 0 -- -- 21
2019-08-18 17:00:00 34.3 19 Sudoeste 42 Sudoeste 0 -- -- 22
2019-08-18 16:00:00 33.4 15 Sudoeste 43 Sudoeste 0 -- -- 22
2019-08-18 15:00:00 34 14 Sudoeste 41 Sudoeste 0 -- -- 23
2019-08-18 14:00:00 32.9 6 Sur 34 Oeste 0 -- -- 27
2019-08-18 13:00:00 32.2 11 Sudoeste 36 Sudoeste 0 -- -- 29
2019-08-18 12:00:00 30.3 10 Sudoeste 29 Sudoeste 0 -- -- 31
2019-08-18 11:00:00 29.4 3 Sur 11 Sudeste 0 -- -- 34
2019-08-18 10:00:00 25.6 0 Calma 9 Noroeste 0 -- -- 36
2019-08-18 09:00:00 20.7 0 Calma 4 Sudoeste 0 -- -- 41
2019-08-18 08:00:00 17.7 0 Calma 5 Oeste 0 -- -- 41
2019-08-18 07:00:00 19 0 Calma 7 Noroeste 0 -- -- 39
2019-08-18 06:00:00 19.9 4 Sur 11 Noroeste 0 -- -- 39
2019-08-18 05:00:00 19.9 0 Calma 5 Sur 0 -- -- 37
2019-08-18 04:00:00 21 3 Sudeste 9 Oeste 0 -- -- 36
2019-08-18 03:00:00 21.6 3 Este 5 Este 0 -- -- 34
2019-08-18 02:00:00 22.1 0 Calma 5 Noroeste 0 -- -- 34
2019-08-18 01:00:00 23.7 3 Noroeste 8 Noroeste 0 -- -- 32
2019-08-18 00:00:00 25.9 0 Calma 18 Oeste 0 -- -- 31
2019-08-17 23:00:00 27 6 Oeste 16 Oeste 0 -- -- 30
2019-08-17 22:00:00 30.1 6 Sudoeste 18 Sudoeste 0 -- -- 28
2019-08-17 21:00:00 32.5 10 Sudoeste 29 Oeste 0 -- -- 26
2019-08-17 20:00:00 34.4 10 Sudoeste 27 Sudoeste 0 -- -- 25
2019-08-17 19:00:00 36.5 13 Sudoeste 36 Oeste 0 -- -- 24
2019-08-17 18:00:00 36.7 13 Sudoeste 32 Oeste 0 -- -- 25
2019-08-17 17:00:00 37 18 Sudoeste 37 Sudoeste 0 -- -- 25
2019-08-17 16:00:00 36.6 17 Sudoeste 40 Sudoeste 0 -- -- 26
2019-08-17 15:00:00 36.7 14 Oeste 34 Sudoeste 0 -- -- 27
2019-08-17 14:00:00 34.3 4 Sur 19 Sudoeste 0 -- -- 29
2019-08-17 13:00:00 32.7 4 Sur 12 Sudoeste 0 -- -- 32
2019-08-17 12:00:00 31.3 4 Este 11 Este 0 -- -- 35
2019-08-17 11:00:00 28.5 4 Este 14 Sudeste 0 -- -- 38
2019-08-17 10:00:00 27.1 5 Este 12 Sudeste 0 -- -- 39
2019-08-17 09:00:00 21.7 0 Calma 9 Nordeste 0 -- -- 49
2019-08-17 08:00:00 18 0 Calma 6 Este 0 -- -- 51
2019-08-17 07:00:00 18.8 0 Calma 5 Noroeste 0 -- -- 49
2019-08-17 06:00:00 19.8 3 Norte 11 Noroeste 0 -- -- 45
2019-08-17 05:00:00 21.1 2 Noroeste 12 Noroeste 0 -- -- 42
2019-08-17 04:00:00 21.7 0 Calma 7 Oeste 0 -- -- 41
2019-08-17 03:00:00 23.1 3 Este 6 Sudeste 0 -- -- 40
2019-08-17 02:00:00 23.4 3 Sudeste 6 Sur 0 -- -- 40
2019-08-17 01:00:00 24.4 0 Calma 5 Noroeste 0 -- -- 39
2019-08-17 00:00:00 25.7 3 Norte 5 Noroeste 0 -- -- 37
2019-08-16 23:00:00 27.3 3 Oeste 13 Oeste 0 -- -- 34
2019-08-16 22:00:00 30.4 4 Oeste 18 Sudoeste 0 -- -- 30
2019-08-16 21:00:00 32.7 8 Sudoeste 19 Sudoeste 0 -- -- 29
2019-08-16 20:00:00 34.3 5 Sudoeste 21 Oeste 0 -- -- 28
2019-08-16 19:00:00 35.9 9 Sudoeste 27 Sudoeste 0 -- -- 27
2019-08-16 18:00:00 35.5 8 Sudoeste 28 Sudoeste 0 -- -- 28
2019-08-16 17:00:00 34.7 3 Sur 26 Oeste 0 -- -- 29
2019-08-16 16:00:00 34.8 2 Sudoeste 21 Sudoeste 0 -- -- 31
2019-08-16 15:00:00 33.4 5 Sur 19 Sudoeste 0 -- -- 34
2019-08-16 14:00:00 32.4 2 Sur 13 Sudeste 0 -- -- 38
2019-08-16 13:00:00 30.4 3 Sur 13 Sudoeste 0 -- -- 41
2019-08-16 12:00:00 28.8 2 Sudeste 13 Este 0 -- -- 43
2019-08-16 11:00:00 27.2 3 Sudeste 12 Este 0 -- -- 46
2019-08-16 10:00:00 25.8 7 Este 15 Este 0 -- -- 48
2019-08-16 09:00:00 23.6 8 Este 14 Nordeste 0 -- -- 50
2019-08-16 08:00:00 20.8 4 Nordeste 16 Nordeste 0 -- -- 53
2019-08-16 07:00:00 21.4 11 Este 19 Este 0 -- -- 52
2019-08-16 06:00:00 21.6 13 Nordeste 23 Nordeste 0 -- -- 50
2019-08-16 05:00:00 21.5 13 Nordeste 19 Nordeste 0 -- -- 50
2019-08-16 04:00:00 22.1 9 Nordeste 20 Nordeste 0 -- -- 48
2019-08-16 03:00:00 23.4 12 Nordeste 30 Este 0 -- -- 46
2019-08-16 02:00:00 24.3 14 Nordeste 37 Nordeste 0 -- -- 44
2019-08-16 01:00:00 25.4 19 Nordeste 40 Nordeste 0 -- -- 41
2019-08-16 00:00:00 27.7 20 Este 38 Este 0 -- -- 36
2019-08-15 23:00:00 26.4 7 Nordeste 14 Nordeste 0 -- -- 33
2019-08-15 22:00:00 27.5 5 Norte 9 Noroeste 0 -- -- 31
2019-08-15 21:00:00 31.7 7 Noroeste 19 Noroeste 0 -- -- 28
2019-08-15 20:00:00 34.5 8 Oeste 21 Oeste 0 -- -- 27
2019-08-15 19:00:00 35.4 7 Oeste 25 Sudoeste 0 -- -- 30
2019-08-15 18:00:00 35.9 6 Sudoeste 18 Sudoeste 0 -- -- 30
2019-08-15 17:00:00 34.6 5 Este 21 Noroeste 0 -- -- 30
2019-08-15 16:00:00 34.9 4 Sudoeste 20 Sudoeste 0 -- -- 30
2019-08-15 15:00:00 33.8 3 Sur 17 Oeste 0 -- -- 30
2019-08-15 14:00:00 32 3 Sudeste 16 Sur 0 -- -- 31
2019-08-15 13:00:00 31.1 4 Sudeste 13 Sudeste 0 -- -- 30
2019-08-15 12:00:00 30 7 Este 14 Este 0 -- -- 32
2019-08-15 11:00:00 27.8 4 Este 11 Este 0 -- -- 35
2019-08-15 10:00:00 25.3 0 Calma 6 Noroeste 0 -- -- 40
2019-08-15 09:00:00 19.7 4 Norte 10 Este 0 -- -- 47
2019-08-15 08:00:00 16.3 5 Nordeste 11 Norte 0 -- -- 49
2019-08-15 07:00:00 16.5 4 Noroeste 6 Noroeste 0 -- -- 47
2019-08-15 06:00:00 17.7 3 Norte 6 Nordeste 0 -- -- 45
2019-08-15 05:00:00 17.5 4 Noroeste 8 Norte 0 -- -- 44
2019-08-15 04:00:00 17.7 4 Nordeste 7 Nordeste 0 -- -- 43
2019-08-15 03:00:00 18.9 2 Oeste 9 Nordeste 0 -- -- 41
2019-08-15 02:00:00 20.5 0 Calma 14 Nordeste 0 -- -- 39
2019-08-15 01:00:00 21.5 7 Norte 9 Noroeste 0 -- -- 36
2019-08-15 00:00:00 22.9 3 Noroeste 5 Noroeste 0 -- -- 33
2019-08-14 23:00:00 23.9 0 Calma 8 Oeste 0 -- -- 32
2019-08-14 22:00:00 26.6 5 Oeste 11 Oeste 0 -- -- 30
2019-08-14 21:00:00 30.2 3 Sudoeste 17 Sudoeste 0 -- -- 27
2019-08-14 20:00:00 31.8 4 Sur 19 Sudoeste 0 -- -- 26
2019-08-14 19:00:00 32.5 2 Sur 16 Sur 0 -- -- 26
2019-08-14 18:00:00 32.8 0 Calma 16 Sudeste 0 -- -- 27
2019-08-14 17:00:00 33.3 2 Oeste 20 Oeste 0 -- -- 27
2019-08-14 16:00:00 32 3 Sur 17 Sur 0 -- -- 28
2019-08-14 15:00:00 30.5 3 Sudoeste 17 Este 0 -- -- 30
2019-08-14 14:00:00 29.3 2 Sur 17 Oeste 0 -- -- 32
2019-08-14 13:00:00 28 3 Oeste 12 Este 0 -- -- 35
2019-08-14 12:00:00 26.5 3 Sudeste 10 Sudeste 0 -- -- 39
2019-08-14 11:00:00 24.6 2 Sur 10 Este 0 -- -- 42
2019-08-14 10:00:00 22.8 4 Este 13 Este 0 -- -- 40
2019-08-14 09:00:00 18.4 3 Este 10 Este 0 -- -- 49
2019-08-14 08:00:00 14 4 Nordeste 8 Nordeste 0 -- -- 53
2019-08-14 07:00:00 14.8 2 Norte 8 Norte 0 -- -- 50
2019-08-14 06:00:00 14.8 6 Norte 9 Nordeste 0 -- -- 48
2019-08-14 05:00:00 15.7 3 Nordeste 12 Nordeste 0 -- -- 43
2019-08-14 04:00:00 18.5 9 Nordeste 22 Este 0 -- -- 38
2019-08-14 03:00:00 20.5 11 Nordeste 23 Nordeste 0 -- -- 35
2019-08-14 02:00:00 21.4 9 Nordeste 27 Este 0 -- -- 31
2019-08-14 01:00:00 22.4 11 Este 22 Nordeste 0 -- -- 31
2019-08-14 00:00:00 22.1 11 Este 20 Nordeste 0 -- -- 32
2019-08-13 23:00:00 23.3 10 Nordeste 19 Nordeste 0 -- -- 31
2019-08-13 22:00:00 22.9 8 Nordeste 15 Nordeste 0 -- -- 30
2019-08-13 21:00:00 26.5 4 Noroeste 21 Oeste 0 -- -- 26
2019-08-13 20:00:00 29 11 Noroeste 21 Noroeste 0 -- -- 25
2019-08-13 19:00:00 30.7 13 Oeste 24 Oeste 0 -- -- 27
2019-08-13 18:00:00 29.5 3 Oeste 24 Noroeste 0 -- -- 29
2019-08-13 17:00:00 29.6 4 Sudoeste 18 Este 0 -- -- 30
2019-08-13 16:00:00 29.7 5 Oeste 19 Norte 0 -- -- 32
2019-08-13 15:00:00 26.9 2 Sudoeste 17 Oeste 0 -- -- 36
2019-08-13 14:00:00 26.1 6 Sudoeste 15 Sudoeste 0 -- -- 39
2019-08-13 13:00:00 24.6 3 Sudeste 16 Nordeste 0 -- -- 42
2019-08-13 12:00:00 24.2 7 Nordeste 21 Este 0 -- -- 41
2019-08-13 11:00:00 20.9 11 Nordeste 22 Este 0 -- -- 43
2019-08-13 10:00:00 18.9 12 Este 24 Nordeste 0 -- -- 47
2019-08-13 09:00:00 17.3 12 Nordeste 26 Este 0 -- -- 50
2019-08-13 08:00:00 15.2 12 Nordeste 33 Nordeste 0 -- -- 53
2019-08-13 07:00:00 15.2 15 Nordeste 33 Nordeste 0 -- -- 53
2019-08-13 06:00:00 15.9 15 Nordeste 30 Nordeste 0 -- -- 52
2019-08-13 05:00:00 16.1 15 Nordeste 27 Nordeste 0 -- -- 51
2019-08-13 04:00:00 16.9 11 Nordeste 31 Este 0 -- -- 50
2019-08-13 03:00:00 17.4 19 Nordeste 37 Este 0 -- -- 49
2019-08-13 02:00:00 18.1 19 Nordeste 41 Nordeste 0 -- -- 47
2019-08-13 01:00:00 19.2 27 Este 43 Este 0 -- -- 43
2019-08-13 00:00:00 20.9 18 Nordeste 34 Este 0 -- -- 35
2019-08-12 23:00:00 21.4 14 Nordeste 29 Este 0 -- -- 32
2019-08-12 22:00:00 22.8 15 Nordeste 28 Nordeste 0 -- -- 31
2019-08-12 21:00:00 24.6 10 Nordeste 21 Este 0 -- -- 28
2019-08-12 20:00:00 26 10 Nordeste 22 Este 0 -- -- 28
2019-08-12 19:00:00 26.6 10 Nordeste 27 Nordeste 0 -- -- 27
2019-08-12 18:00:00 27.2 11 Nordeste 29 Nordeste 0 -- -- 27
2019-08-12 17:00:00 27 2 Norte 27 Este 0 -- -- 27
2019-08-12 16:00:00 27.2 12 Nordeste 27 Este 0 -- -- 27
2019-08-12 15:00:00 26.7 6 Nordeste 28 Nordeste 0 -- -- 27
2019-08-12 14:00:00 25.3 11 Nordeste 24 Este 0 -- -- 31
2019-08-12 13:00:00 24.7 8 Nordeste 28 Nordeste 0 -- -- 33
2019-08-12 12:00:00 24.5 9 Nordeste 22 Noroeste 0 -- -- 35
2019-08-12 11:00:00 21.9 4 Noroeste 12 Este 0 -- -- 41
2019-08-12 10:00:00 19.3 8 Oeste 13 Oeste 0 -- -- 48
2019-08-12 09:00:00 16.5 3 Oeste 11 Nordeste 0 -- -- 54
2019-08-12 08:00:00 13.6 2 Este 9 Este 0 -- -- 58
2019-08-12 07:00:00 13 2 Sur 6 Sudoeste 0 -- -- 56
2019-08-12 06:00:00 13.6 0 Calma 5 Sudoeste 0 -- -- 53
2019-08-12 05:00:00 14 4 Oeste 8 Noroeste 0 -- -- 49
2019-08-12 04:00:00 15.1 5 Noroeste 9 Oeste 0 -- -- 47
2019-08-12 03:00:00 16.2 2 Oeste 9 Noroeste 0 -- -- 42
2019-08-12 02:00:00 17.5 4 Noroeste 12 Noroeste 0 -- -- 39
2019-08-12 01:00:00 19.1 4 Noroeste 18 Noroeste 0 -- -- 38
2019-08-12 00:00:00 20.4 7 Noroeste 18 Noroeste 0 -- -- 35
2019-08-11 23:00:00 21.6 8 Noroeste 18 Noroeste 0 -- -- 34
2019-08-11 22:00:00 23 8 Noroeste 23 Oeste 0 -- -- 34
2019-08-11 21:00:00 24.5 13 Noroeste 33 Noroeste 0 -- -- 34
2019-08-11 20:00:00 27.3 13 Noroeste 30 Oeste 0 -- -- 34
2019-08-11 19:00:00 27.2 15 Oeste 41 Oeste 0 -- -- 32
2019-08-11 18:00:00 28.3 10 Sudoeste 38 Sudoeste 0 -- -- 30
2019-08-11 17:00:00 30.4 17 Oeste 40 Sudoeste 0 -- -- 30
2019-08-11 16:00:00 30 17 Oeste 39 Oeste 0 -- -- 30
2019-08-11 15:00:00 28.6 16 Sudoeste 38 Sudoeste 0 -- -- 31
2019-08-11 14:00:00 26.6 12 Sudoeste 33 Sudoeste 0 -- -- 34
2019-08-11 13:00:00 27.9 12 Oeste 29 Sudoeste 0 -- -- 36
2019-08-11 12:00:00 26.1 6 Sudoeste 25 Sudoeste 0 -- -- 38
2019-08-11 11:00:00 25.7 5 Sudoeste 17 Oeste 0 -- -- 39
2019-08-11 10:00:00 23.5 3 Sudoeste 8 Sudoeste 0 -- -- 45
2019-08-11 09:00:00 20.5 4 Sudoeste 10 Sudoeste 0 -- -- 49
2019-08-11 08:00:00 19 0 Calma 5 Este 0 -- -- 50
2019-08-11 07:00:00 19.1 0 Calma 21 Oeste 0 -- -- 50
2019-08-11 06:00:00 17.6 6 Oeste 12 Noroeste 0 -- -- 47
2019-08-11 05:00:00 18.2 5 Oeste 10 Sudoeste 0 -- -- 45
2019-08-11 04:00:00 19.3 5 Sudoeste 10 Sudoeste 0 -- -- 43
2019-08-11 03:00:00 19.4 3 Sudoeste 6 Sudoeste 0 -- -- 41
2019-08-11 02:00:00 20.9 2 Sudoeste 8 Sudoeste 0 -- -- 37
2019-08-11 01:00:00 21 3 Sur 9 Oeste 0 -- -- 36
2019-08-11 00:00:00 22.1 5 Oeste 13 Noroeste 0 -- -- 35
2019-08-10 23:00:00 23 3 Oeste 11 Oeste 0 -- -- 33
2019-08-10 22:00:00 25.9 6 Oeste 18 Oeste 0 -- -- 30
2019-08-10 21:00:00 28.1 12 Oeste 22 Noroeste 0 -- -- 29
2019-08-10 20:00:00 30.1 11 Oeste 28 Sudoeste 0 -- -- 29
2019-08-10 19:00:00 31.5 13 Oeste 28 Sudoeste 0 -- -- 28
2019-08-10 18:00:00 31.2 15 Sudoeste 30 Sudoeste 0 -- -- 27
2019-08-10 17:00:00 31.2 11 Sudoeste 30 Oeste 0 -- -- 29
2019-08-10 16:00:00 31.2 11 Sudoeste 32 Sudoeste 0 -- -- 30
2019-08-10 15:00:00 29.6 8 Sudoeste 27 Sudoeste 0 -- -- 31
2019-08-10 14:00:00 28.2 5 Sur 20 Sudoeste 0 -- -- 34
2019-08-10 13:00:00 27 4 Sur 16 Sur 0 -- -- 39
2019-08-10 12:00:00 25.3 5 Sur 13 Sudeste 0 -- -- 45
2019-08-10 11:00:00 24.2 0 Calma 10 Noroeste 0 -- -- 52
2019-08-10 10:00:00 22 0 Calma 10 Oeste 0 -- -- 58
2019-08-10 09:00:00 19.6 2 Sudoeste 5 Sudoeste 0 -- -- 67
2019-08-10 08:00:00 16.7 3 Sur 6 Sur 0 -- -- 74
2019-08-10 07:00:00 17.6 0 Calma 9 Sudoeste 0 -- -- 71
2019-08-10 06:00:00 17.9 2 Sur 12 Oeste 0 -- -- 71
2019-08-10 05:00:00 18.8 5 Oeste 10 Oeste 0 -- -- 70
2019-08-10 04:00:00 19.6 0 Calma 9 Sudoeste 0 -- -- 73
2019-08-10 03:00:00 20.4 2 Sur 9 Sudoeste 0 -- -- 74
2019-08-10 02:00:00 21.1 4 Sudoeste 12 Oeste 0 -- -- 71
2019-08-10 01:00:00 21.9 7 Sudoeste 15 Sudoeste 0 -- -- 67
2019-08-10 00:00:00 22.8 6 Sudoeste 22 Sudoeste 0 -- -- 63
2019-08-09 23:00:00 23.7 9 Sudoeste 24 Sudoeste 0 -- -- 60
2019-08-09 22:00:00 24.7 13 Sudoeste 30 Oeste 0 -- -- 58
2019-08-09 21:00:00 26.2 18 Oeste 38 Oeste 0 -- -- 55
2019-08-09 20:00:00 28.6 21 Oeste 43 Oeste 0 -- -- 48
2019-08-09 19:00:00 31 19 Sudoeste 42 Oeste 0 -- -- 44
2019-08-09 18:00:00 31 15 Sudoeste 48 Sudoeste 0 -- -- 44
2019-08-09 17:00:00 31.9 20 Sudoeste 44 Oeste 0 -- -- 44
2019-08-09 16:00:00 31.3 22 Oeste 47 Oeste 0 -- -- 45
2019-08-09 15:00:00 30.8 16 Sudoeste 42 Sudoeste 0 -- -- 46
2019-08-09 14:00:00 30 17 Sudoeste 45 Oeste 0 -- -- 49
2019-08-09 13:00:00 28.6 19 Sudoeste 41 Sudoeste 0 -- -- 52
2019-08-09 12:00:00 27.1 10 Sudoeste 32 Sudoeste 0 -- -- 56
2019-08-09 11:00:00 25.6 13 Sudoeste 32 Oeste 0 -- -- 60
2019-08-09 10:00:00 24.3 11 Sudoeste 28 Sudoeste 0 -- -- 63
2019-08-09 09:00:00 22.8 14 Sudoeste 30 Oeste 0 -- -- 66
2019-08-09 08:00:00 21.4 4 Sur 19 Sudoeste 0 -- -- 68
2019-08-09 07:00:00 21.8 9 Sudoeste 20 Sudoeste 0 -- -- 64
2019-08-09 06:00:00 22.1 5 Sudoeste 19 Sudoeste 0 -- -- 61
2019-08-09 05:00:00 22.8 2 Sur 14 Sudoeste 0 -- -- 56
2019-08-09 04:00:00 24 5 Sudoeste 19 Sudoeste 0 -- -- 52
2019-08-09 03:00:00 23.2 0 Calma 14 Oeste 0 -- -- 52
2019-08-09 02:00:00 23.1 2 Oeste 10 Oeste 0 -- -- 49
2019-08-09 01:00:00 24 5 Oeste 13 Oeste 0 -- -- 47
2019-08-09 00:00:00 24.5 6 Oeste 10 Sudoeste 0 -- -- 45
2019-08-08 23:00:00 27.1 4 Sudoeste 16 Sudoeste 0 -- -- 41
2019-08-08 22:00:00 29 11 Sudoeste 27 Sudoeste 0 -- -- 38
2019-08-08 21:00:00 30.4 16 Sudoeste 30 Sudoeste 0 -- -- 36
2019-08-08 20:00:00 31.5 8 Sudoeste 37 Oeste 0 -- -- 35
2019-08-08 19:00:00 33.5 13 Sudoeste 36 Sudoeste 0 -- -- 33
2019-08-08 18:00:00 33.5 18 Sudoeste 38 Sudoeste 0 -- -- 33
2019-08-08 17:00:00 32.5 8 Sudoeste 41 Sudoeste 0 -- -- 36
2019-08-08 16:00:00 32.9 17 Sudoeste 36 Sudoeste 0 -- -- 37
2019-08-08 15:00:00 31.3 9 Sudoeste 35 Oeste 0 -- -- 41
2019-08-08 14:00:00 30.7 5 Sudoeste 28 Oeste 0 -- -- 43
2019-08-08 13:00:00 28.7 4 Sur 20 Sudoeste 0 -- -- 46
2019-08-08 12:00:00 27.6 7 Sudoeste 17 Sudoeste 0 -- -- 48
2019-08-08 11:00:00 25.8 5 Sudoeste 15 Sudoeste 0 -- -- 52
2019-08-08 10:00:00 23.7 4 Oeste 9 Oeste 0 -- -- 57
2019-08-08 09:00:00 20.4 3 Oeste 6 Oeste 0 -- -- 67
2019-08-08 08:00:00 17.5 3 Oeste 5 Noroeste 0 -- -- 72
2019-08-08 07:00:00 18 0 Calma 7 Sudoeste 0 -- -- 69
2019-08-08 06:00:00 18.9 2 Sur 10 Sudoeste 0 -- -- 65
2019-08-08 05:00:00 19.3 2 Sudoeste 10 Oeste 0 -- -- 63
2019-08-08 04:00:00 20 8 Oeste 12 Oeste 0 -- -- 60
2019-08-08 03:00:00 20 4 Oeste 10 Oeste 0 -- -- 58
2019-08-08 02:00:00 20.5 0 Calma 9 Oeste 0 -- -- 56
2019-08-08 01:00:00 21.2 0 Calma 15 Sudoeste 0 -- -- 53
2019-08-08 00:00:00 22 4 Sudoeste 14 Sudoeste 0 -- -- 50
2019-08-07 23:00:00 22.8 4 Sudoeste 18 Oeste 0 -- -- 49
2019-08-07 22:00:00 23.7 8 Sudoeste 23 Sudoeste 0 -- -- 49
2019-08-07 21:00:00 25.2 10 Sudoeste 23 Sudoeste 0 -- -- 46
2019-08-07 20:00:00 25.7 14 Sudoeste 35 Oeste 0 -- -- 45
2019-08-07 19:00:00 27.5 8 Sudoeste 26 Sudoeste 0 -- -- 43
2019-08-07 18:00:00 27.1 12 Sudoeste 21 Oeste 0 -- -- 44
2019-08-07 17:00:00 26.6 7 Sudoeste 18 Sudoeste 0 -- -- 43
2019-08-07 16:00:00 26 6 Oeste 29 Sudoeste 0 -- -- 49
2019-08-07 15:00:00 26.3 10 Oeste 22 Oeste 0 -- -- 46
2019-08-07 14:00:00 26.4 10 Oeste 27 Sudoeste 0 -- -- 46
2019-08-07 13:00:00 26.8 11 Oeste 19 Oeste 0 -- -- 46
2019-08-07 12:00:00 25.6 10 Oeste 17 Oeste 0 -- -- 47
2019-08-07 11:00:00 25.2 4 Sudoeste 17 Sudoeste 0 -- -- 48
2019-08-07 10:00:00 24.4 11 Sudoeste 18 Sudoeste 0 -- -- 49
2019-08-07 09:00:00 23.7 3 Sudoeste 15 Sudoeste 0 -- -- 48
2019-08-07 08:00:00 23.1 0 Calma 10 Sudoeste 0 -- -- 47
2019-08-07 07:00:00 23.3 2 Sur 11 Oeste 0 -- -- 45
2019-08-07 06:00:00 23.6 2 Sudoeste 14 Oeste 0 -- -- 42
2019-08-07 05:00:00 23.7 7 Oeste 13 Oeste 0 -- -- 41
2019-08-07 04:00:00 24 2 Oeste 12 Sudoeste 0 -- -- 39
2019-08-07 03:00:00 25 8 Sudoeste 14 Sudoeste 0 -- -- 39
2019-08-07 02:00:00 24.5 3 Noroeste 10 Noroeste 0 -- -- 37
2019-08-07 01:00:00 26.3 5 Noroeste 14 Oeste 0 -- -- 34
2019-08-07 00:00:00 27.7 10 Oeste 23 Oeste 0 -- -- 33
2019-08-06 23:00:00 28.4 12 Oeste 22 Sudoeste 0 -- -- 32
2019-08-06 22:00:00 29.7 6 Sudoeste 20 Oeste 0 -- -- 31
2019-08-06 21:00:00 31.2 10 Sudoeste 29 Sudoeste 0 -- -- 28
2019-08-06 20:00:00 32.9 13 Sudoeste 31 Sudoeste 0 -- -- 26
2019-08-06 19:00:00 34 15 Sudoeste 35 Sudoeste 0 -- -- 24
2019-08-06 18:00:00 35.2 8 Sudoeste 32 Sudoeste 0 -- -- 23
2019-08-06 17:00:00 34.4 12 Sudoeste 34 Sudoeste 0 -- -- 23
2019-08-06 16:00:00 34.1 6 Sur 27 Oeste 0 -- -- 24
2019-08-06 15:00:00 34 9 Sudoeste 25 Sur 0 -- -- 25
2019-08-06 14:00:00 33.9 7 Sudoeste 30 Sudoeste 0 -- -- 27
2019-08-06 13:00:00 32.7 12 Sudoeste 30 Oeste 0 -- -- 29
2019-08-06 12:00:00 31.3 10 Sudoeste 22 Oeste 0 -- -- 32
2019-08-06 11:00:00 28.7 3 Sur 11 Sur 0 -- -- 34
2019-08-06 10:00:00 26.7 3 Sudoeste 9 Sudoeste 0 -- -- 36
2019-08-06 09:00:00 22.5 0 Calma -- -- 0 -- -- 43
2019-08-06 08:00:00 18.2 0 Calma 4 Noroeste 0 -- -- 46
2019-08-06 07:00:00 19.1 3 Noroeste 7 Oeste 0 -- -- 44
2019-08-06 06:00:00 19.8 2 Sur 10 Sudoeste 0 -- -- 44
2019-08-06 05:00:00 20.8 0 Calma 13 Oeste 0 -- -- 42
2019-08-06 04:00:00 21.9 3 Noroeste 10 Sudoeste 0 -- -- 38
2019-08-06 03:00:00 22.5 3 Oeste 10 Oeste 0 -- -- 34
2019-08-06 02:00:00 23 3 Oeste 8 Oeste 0 -- -- 33
2019-08-06 01:00:00 24.4 4 Noroeste 17 Oeste 0 -- -- 31
2019-08-06 00:00:00 25.8 6 Oeste 13 Oeste 0 -- -- 30
2019-08-05 23:00:00 26.6 8 Oeste 12 Oeste 0 -- -- 30
2019-08-05 22:00:00 29.5 8 Oeste 18 Oeste 0 -- -- 27
2019-08-05 21:00:00 32.3 9 Oeste 22 Sudoeste 0 -- -- 25
2019-08-05 20:00:00 34.1 12 Oeste 26 Sudoeste 0 -- -- 24
2019-08-05 19:00:00 35.5 11 Sudoeste 37 Oeste 0 -- -- 24
2019-08-05 18:00:00 35.5 10 Sudoeste 34 Sudoeste 0 -- -- 24
2019-08-05 17:00:00 36 11 Oeste 33 Sudoeste 0 -- -- 25
2019-08-05 16:00:00 36.2 14 Sudoeste 32 Sudoeste 0 -- -- 25
2019-08-05 15:00:00 35.4 15 Sudoeste 31 Oeste 0 -- -- 27
2019-08-05 14:00:00 33.8 4 Sur 29 Sudoeste 0 -- -- 28
2019-08-05 13:00:00 32.9 8 Sudoeste 26 Oeste 0 -- -- 30
2019-08-05 12:00:00 30.6 3 Sur 11 Sudoeste 0 -- -- 35
2019-08-05 11:00:00 28.8 0 Calma 9 Sudoeste 0 -- -- 38
2019-08-05 10:00:00 25.6 4 Oeste 7 Sudoeste 0 -- -- 41
2019-08-05 09:00:00 21.2 3 Noroeste 5 Noroeste 0 -- -- 47
2019-08-05 08:00:00 18 0 Calma 7 Este 0 -- -- 50
2019-08-05 07:00:00 18.7 4 Nordeste 8 Norte 0 -- -- 47
2019-08-05 06:00:00 19.1 6 Norte 8 Noroeste 0 -- -- 47
2019-08-05 05:00:00 20.3 0 Calma 6 Oeste 0 -- -- 44
2019-08-05 04:00:00 21.2 4 Oeste 8 Oeste 0 -- -- 42
2019-08-05 03:00:00 22 0 Calma 4 Noroeste 0 -- -- 41
2019-08-05 02:00:00 23.7 0 Calma 16 Oeste 0 -- -- 38
2019-08-05 01:00:00 25 3 Norte 10 Sudoeste 0 -- -- 36
2019-08-05 00:00:00 26.1 2 Sur 10 Oeste 0 -- -- 34
2019-08-04 23:00:00 28 4 Sudoeste 15 Sudoeste 0 -- -- 31
2019-08-04 22:00:00 30.2 6 Sudoeste 17 Oeste 0 -- -- 28
2019-08-04 21:00:00 32.1 9 Sudoeste 21 Sudoeste 0 -- -- 25
2019-08-04 20:00:00 33.6 7 Sudoeste 25 Sudoeste 0 -- -- 24
2019-08-04 19:00:00 35.4 10 Sudoeste 28 Sudoeste 0 -- -- 24
2019-08-04 18:00:00 35.6 18 Sudoeste 33 Sudoeste 0 -- -- 23
2019-08-04 17:00:00 35.4 11 Sudoeste 33 Sudoeste 0 -- -- 24
2019-08-04 16:00:00 35.3 10 Sudoeste 33 Oeste 0 -- -- 25
2019-08-04 15:00:00 34.7 9 Sudoeste 30 Sudoeste 0 -- -- 26
2019-08-04 14:00:00 33.3 5 Sur 31 Sudoeste 0 -- -- 27
2019-08-04 13:00:00 32.8 6 Sudoeste 24 Sudoeste 0 -- -- 30
2019-08-04 12:00:00 31.2 6 Sudoeste 16 Oeste 0 -- -- 33
2019-08-04 11:00:00 28.6 2 Sudoeste 8 Oeste 0 -- -- 37
2019-08-04 10:00:00 25 0 Calma 6 Oeste 0 -- -- 39
2019-08-04 09:00:00 21.9 0 Calma 5 Oeste 0 -- -- 43
2019-08-04 08:00:00 18.5 0 Calma 3 Oeste 0 -- -- 46
2019-08-04 07:00:00 19.6 0 Calma 7 Sudoeste 0 -- -- 44
2019-08-04 06:00:00 21.2 2 Este 10 Este 0 -- -- 41
2019-08-04 05:00:00 21.9 4 Noroeste 10 Oeste 0 -- -- 38
2019-08-04 04:00:00 22.8 6 Oeste 13 Oeste 0 -- -- 36
2019-08-04 03:00:00 22.6 4 Sudoeste 7 Sudoeste 0 -- -- 34
2019-08-04 02:00:00 22.9 0 Calma 9 Sudoeste 0 -- -- 34
2019-08-04 01:00:00 23.7 2 Sur 6 Sur 0 -- -- 33
2019-08-04 00:00:00 25.4 3 Sudoeste 15 Oeste 0 -- -- 31
2019-08-03 23:00:00 26.1 7 Oeste 13 Oeste 0 -- -- 28
2019-08-03 22:00:00 28.8 5 Oeste 14 Sudoeste 0 -- -- 24
2019-08-03 21:00:00 32.2 7 Sudoeste 23 Oeste 0 -- -- 22
2019-08-03 20:00:00 34 15 Oeste 29 Sudoeste 0 -- -- 21
2019-08-03 19:00:00 36 9 Oeste 31 Sudoeste 0 -- -- 21
2019-08-03 18:00:00 35.5 7 Sudoeste 35 Sudoeste 0 -- -- 21
2019-08-03 17:00:00 35.2 6 Sudoeste 32 Sudoeste 0 -- -- 22
2019-08-03 16:00:00 34.8 4 Sur 25 Sudoeste 0 -- -- 23
2019-08-03 15:00:00 34.1 5 Sur 19 Sudoeste 0 -- -- 27
2019-08-03 14:00:00 32.3 5 Sur 13 Sudeste 0 -- -- 32
2019-08-03 13:00:00 31.1 3 Sur 15 Este 0 -- -- 37
2019-08-03 12:00:00 29.7 4 Este 12 Este 0 -- -- 40
2019-08-03 11:00:00 27.3 3 Este 12 Nordeste 0 -- -- 44
2019-08-03 10:00:00 25.9 5 Este 13 Este 0 -- -- 46
2019-08-03 09:00:00 24.5 6 Este 12 Este 0 -- -- 49
2019-08-03 08:00:00 20.2 5 Nordeste 10 Nordeste 0 -- -- 54
2019-08-03 07:00:00 20.6 7 Este 13 Nordeste 0 -- -- 51
2019-08-03 06:00:00 20.5 8 Nordeste 13 Nordeste 0 -- -- 46
2019-08-03 05:00:00 22.2 6 Nordeste 15 Este 0 -- -- 43
2019-08-03 04:00:00 22.6 6 Nordeste 18 Este 0 -- -- 42
2019-08-03 03:00:00 23.3 4 Noroeste 21 Nordeste 0 -- -- 35
2019-08-03 02:00:00 22.5 4 Norte 6 Norte 0 -- -- 33
2019-08-03 01:00:00 23.9 0 Calma 6 Noroeste 0 -- -- 30
2019-08-03 00:00:00 24.1 3 Noroeste 8 Oeste 0 -- -- 29
2019-08-02 23:00:00 25.6 6 Oeste 9 Oeste 0 -- -- 28
2019-08-02 22:00:00 28.3 5 Sudoeste 11 Sudoeste 0 -- -- 26
2019-08-02 21:00:00 32.3 5 Sudoeste 17 Sur 0 -- -- 23
2019-08-02 20:00:00 33.6 4 Sudoeste 20 Oeste 0 -- -- 23
2019-08-02 19:00:00 34.9 5 Sudoeste 22 Oeste 0 -- -- 23
2019-08-02 18:00:00 35.6 5 Sudoeste 25 Oeste 0 -- -- 24
2019-08-02 17:00:00 35.2 5 Sudoeste 22 Oeste 0 -- -- 25
2019-08-02 16:00:00 35.2 6 Sudoeste 22 Sudoeste 0 -- -- 27
2019-08-02 15:00:00 33.7 5 Sur 19 Sudoeste 0 -- -- 30
2019-08-02 14:00:00 32.8 6 Este 17 Sudoeste 0 -- -- 32
2019-08-02 13:00:00 31.4 5 Este 15 Sudeste 0 -- -- 38
2019-08-02 12:00:00 29.7 6 Nordeste 17 Nordeste 0 -- -- 43
2019-08-02 11:00:00 27.9 6 Este 17 Nordeste 0 -- -- 46
2019-08-02 10:00:00 26 11 Este 18 Este 0 -- -- 50
2019-08-02 09:00:00 23.9 12 Este 20 Nordeste 0 -- -- 55
2019-08-02 08:00:00 17.6 10 Nordeste 18 Nordeste 0 -- -- 56
2019-08-02 07:00:00 17.9 8 Nordeste 18 Nordeste 0 -- -- 54
2019-08-02 06:00:00 18.2 8 Nordeste 16 Nordeste 0 -- -- 53
2019-08-02 05:00:00 18.2 0 Calma 7 Oeste 0 -- -- 49
2019-08-02 04:00:00 20 3 Nordeste 17 Nordeste 0 -- -- 46
2019-08-02 03:00:00 22.4 9 Nordeste 16 Este 0 -- -- 43
2019-08-02 02:00:00 22.1 3 Noroeste 10 Nordeste 0 -- -- 40
2019-08-02 01:00:00 22.6 7 Este 12 Nordeste 0 -- -- 38
2019-08-02 00:00:00 24.3 3 Noroeste 8 Sudoeste 0 -- -- 35
2019-08-01 23:00:00 27.1 5 Oeste 22 Sudoeste 0 -- -- 31
2019-08-01 22:00:00 29.4 12 Sudoeste 27 Sudoeste 0 -- -- 27
2019-08-01 21:00:00 30.9 11 Sudoeste 29 Sudoeste 0 -- -- 26
2019-08-01 20:00:00 32.3 9 Sudoeste 27 Sudoeste 0 -- -- 25
2019-08-01 19:00:00 34.2 11 Sudoeste 29 Sudoeste 0 -- -- 24
2019-08-01 18:00:00 33.2 6 Sur 30 Oeste 0 -- -- 25
2019-08-01 17:00:00 34.3 14 Oeste 34 Oeste 0 -- -- 27
2019-08-01 16:00:00 32.6 5 Sur 32 Sudoeste 0 -- -- 30
2019-08-01 15:00:00 32 3 Sur 28 Sur 0 -- -- 34
2019-08-01 14:00:00 30.2 4 Sur 17 Sudeste 0 -- -- 40
2019-08-01 13:00:00 27.8 5 Sudeste 14 Sudeste 0 -- -- 47
2019-08-01 12:00:00 26 2 Sudeste 13 Este 0 -- -- 50
2019-08-01 11:00:00 25.4 3 Este 12 Nordeste 0 -- -- 52
2019-08-01 10:00:00 24.1 3 Nordeste 14 Este 0 -- -- 54
2019-08-01 09:00:00 22.9 7 Este 13 Este 0 -- -- 57
2019-08-01 08:00:00 20.7 7 Este 13 Sudeste 0 -- -- 61
2019-08-01 07:00:00 21.1 4 Sudeste 18 Este 0 -- -- 59
2019-08-01 06:00:00 21.6 7 Este 27 Este 0 -- -- 58
2019-08-01 05:00:00 22.1 10 Sudeste 23 Sudeste 0 -- -- 58
2019-08-01 04:00:00 22.7 10 Este 23 Este 0 -- -- 57
2019-08-01 03:00:00 23.3 7 Sudeste 26 Este 0 -- -- 56
2019-08-01 02:00:00 24.4 5 Sudeste 25 Este 0 -- -- 56
2019-08-01 01:00:00 25.1 8 Sudeste 27 Sur 0 -- -- 55
2019-08-01 00:00:00 26.1 10 Sudeste 30 Sudeste 0 -- -- 53
2019-07-31 23:00:00 27 9 Sudeste 30 Este 0 -- -- 52
2019-07-31 22:00:00 27.4 12 Sudeste 34 Este 0.4 -- -- 52
2019-07-31 21:00:00 30.1 16 Este 35 Este 0 -- -- 40
2019-07-31 20:00:00 32.1 2 Sur 12 Sudoeste 0 -- -- 33
2019-07-31 19:00:00 33.5 3 Sudoeste 17 Este 0 -- -- 33
2019-07-31 18:00:00 32.8 5 Sudeste 24 Sudoeste 0 -- -- 33
2019-07-31 17:00:00 32.6 8 Este 23 Sudeste 0 -- -- 34
2019-07-31 16:00:00 32 5 Sur 18 Sudoeste 0 -- -- 35
2019-07-31 15:00:00 31.2 0 Calma 21 Este 0 -- -- 40
2019-07-31 14:00:00 29.2 5 Sur 18 Sudeste 0 -- -- 43
2019-07-31 13:00:00 27.5 8 Este 21 Este 0 -- -- 45
2019-07-31 12:00:00 25.4 8 Este 20 Este 0 -- -- 47
2019-07-31 11:00:00 24.5 12 Nordeste 23 Este 0 -- -- 46
2019-07-31 10:00:00 22.6 13 Nordeste 24 Nordeste 0 -- -- 48
2019-07-31 09:00:00 20.7 15 Nordeste 28 Nordeste 0 -- -- 49
2019-07-31 08:00:00 18.9 14 Nordeste 30 Nordeste 0 -- -- 51
2019-07-31 07:00:00 18.3 16 Nordeste 31 Nordeste 0 -- -- 51
2019-07-31 06:00:00 18.2 19 Nordeste 35 Nordeste 0 -- -- 51
2019-07-31 05:00:00 18.2 18 Nordeste 35 Nordeste 0 -- -- 50
2019-07-31 04:00:00 18.6 16 Nordeste 29 Nordeste 0 -- -- 49
2019-07-31 03:00:00 19.1 15 Nordeste 42 Nordeste 0 -- -- 47
2019-07-31 02:00:00 20 24 Nordeste 48 Este 0 -- -- 44
2019-07-31 01:00:00 21.8 24 Nordeste 42 Nordeste 0 -- -- 41
2019-07-31 00:00:00 23.8 21 Nordeste 37 Nordeste 0 -- -- 36
2019-07-30 23:00:00 24.5 15 Nordeste 24 Nordeste 0 -- -- 32
2019-07-30 22:00:00 24.3 5 Nordeste 8 Este 0 -- -- 29
2019-07-30 21:00:00 27.8 5 Nordeste 9 Nordeste 0 -- -- 26
2019-07-30 20:00:00 29.3 2 Sudoeste 13 Sudoeste 0 -- -- 25
2019-07-30 19:00:00 30.9 4 Sur 16 Sudoeste 0 -- -- 25
2019-07-30 18:00:00 31.8 10 Oeste 19 Sudoeste 0 -- -- 27
2019-07-30 17:00:00 30.8 0 Calma 14 Nordeste 0 -- -- 27
2019-07-30 16:00:00 29.5 3 Sudoeste 18 Oeste 0 -- -- 28
2019-07-30 15:00:00 29.1 6 Norte 19 Norte 0 -- -- 30
2019-07-30 14:00:00 28.4 8 Noroeste 18 Norte 0 -- -- 32
2019-07-30 13:00:00 26.9 0 Calma 15 Este 0 -- -- 35
2019-07-30 12:00:00 25.3 7 Este 19 Este 0 -- -- 37
2019-07-30 11:00:00 23.6 7 Norte 19 Noroeste 0 -- -- 39
2019-07-30 10:00:00 21.8 7 Nordeste 18 Nordeste 0 -- -- 42
2019-07-30 09:00:00 19.4 8 Nordeste 16 Nordeste 0 -- -- 46
2019-07-30 08:00:00 14.9 4 Este 12 Este 0 -- -- 51
2019-07-30 07:00:00 14.6 0 Calma -- -- 0 -- -- 50
2019-07-30 06:00:00 15.4 0 Calma 9 Oeste 0 -- -- 48
2019-07-30 05:00:00 16.5 5 Oeste 9 Oeste 0 -- -- 47
2019-07-30 04:00:00 17.8 4 Oeste 10 Oeste 0 -- -- 44
2019-07-30 03:00:00 18.7 4 Oeste 14 Oeste 0 -- -- 41
2019-07-30 02:00:00 20.3 6 Oeste 15 Noroeste 0 -- -- 38
2019-07-30 01:00:00 20.9 9 Oeste 16 Oeste 0 -- -- 38
2019-07-30 00:00:00 22.4 6 Oeste 19 Noroeste 0 -- -- 34
2019-07-29 23:00:00 24 8 Noroeste 24 Oeste 0 -- -- 33
2019-07-29 22:00:00 25.7 10 Noroeste 29 Oeste 0 -- -- 32
2019-07-29 21:00:00 27.9 15 Oeste 34 Noroeste 0 -- -- 31
2019-07-29 20:00:00 30.2 13 Oeste 36 Oeste 0 -- -- 32
2019-07-29 19:00:00 31.8 16 Sudoeste 42 Sudoeste 0 -- -- 28
2019-07-29 18:00:00 32.6 17 Sudoeste 36 Sudoeste 0 -- -- 27
2019-07-29 17:00:00 32.1 9 Sudoeste 33 Sudoeste 0 -- -- 25
2019-07-29 16:00:00 32.1 8 Sur 42 Sudoeste 0 -- -- 25
2019-07-29 15:00:00 32.3 10 Sudoeste 29 Sudoeste 0 -- -- 30
2019-07-29 14:00:00 31.1 14 Sudoeste 32 Sudoeste 0 -- -- 33
2019-07-29 13:00:00 30 8 Sudoeste 26 Sudoeste 0 -- -- 34
2019-07-29 12:00:00 28.5 4 Sur 13 Sudoeste 0 -- -- 34
2019-07-29 11:00:00 26.6 0 Calma 9 Sudoeste 0 -- -- 36
2019-07-29 10:00:00 23.8 2 Sudoeste 8 Oeste 0 -- -- 39
2019-07-29 09:00:00 19 0 Calma 7 Oeste 0 -- -- 47
2019-07-29 08:00:00 16.2 0 Calma 6 Este 0 -- -- 50
2019-07-29 07:00:00 15.9 7 Este 16 Noroeste 0 -- -- 50
2019-07-29 06:00:00 16.5 0 Calma -- -- 0 -- -- 47
2019-07-29 05:00:00 17.2 0 Calma 3 Noroeste 0 -- -- 49
2019-07-29 04:00:00 18.6 2 Noroeste 8 Nordeste 0 -- -- 45
2019-07-29 03:00:00 19.6 5 Nordeste 11 Norte 0 -- -- 43
2019-07-29 02:00:00 20.4 6 Norte 10 Noroeste 0 -- -- 44
2019-07-29 01:00:00 23 0 Calma 10 Sudoeste 0 -- -- 42
2019-07-29 00:00:00 25.1 2 Sudoeste 12 Sur 0 -- -- 40
2019-07-28 23:00:00 25.6 3 Sur 10 Sur 0 -- -- 38
2019-07-28 22:00:00 26.7 3 Sur 12 Sur 0 -- -- 37
2019-07-28 21:00:00 27.7 3 Sur 16 Sur 0 -- -- 35
2019-07-28 20:00:00 28.5 5 Sur 17 Sur 0 -- -- 34
2019-07-28 19:00:00 29.1 7 Sudoeste 21 Sudoeste 0 -- -- 34
2019-07-28 18:00:00 29.8 6 Sudoeste 26 Sudoeste 0 -- -- 34
2019-07-28 17:00:00 29.4 4 Sur 22 Sudoeste 0 -- -- 35
2019-07-28 16:00:00 29.6 3 Oeste 23 Sudoeste 0 -- -- 36
2019-07-28 15:00:00 28 6 Sudoeste 22 Sudoeste 0 -- -- 38
2019-07-28 14:00:00 26.9 6 Sudoeste 19 Oeste 0 -- -- 39
2019-07-28 13:00:00 25.2 4 Oeste 14 Oeste 0 -- -- 42
2019-07-28 12:00:00 23 2 Sur 14 Este 0 -- -- 45
2019-07-28 11:00:00 21.3 6 Nordeste 18 Este 0 -- -- 49
2019-07-28 10:00:00 19.1 5 Este 15 Nordeste 0 -- -- 53
2019-07-28 09:00:00 18.1 8 Nordeste 22 Este 0 -- -- 57
2019-07-28 08:00:00 15.3 5 Nordeste 20 Este 0 -- -- 62
2019-07-28 07:00:00 15.7 11 Este 19 Este 0 -- -- 61
2019-07-28 06:00:00 16.2 8 Este 25 Este 0 -- -- 59
2019-07-28 05:00:00 16.7 10 Nordeste 19 Este 0 -- -- 59
2019-07-28 04:00:00 17.6 6 Nordeste 21 Este 0 -- -- 57
2019-07-28 03:00:00 18.9 8 Nordeste 18 Nordeste 0 -- -- 55
2019-07-28 02:00:00 19.3 7 Este 15 Este 0 -- -- 53
2019-07-28 01:00:00 19.9 6 Este 21 Nordeste 0 -- -- 51
2019-07-28 00:00:00 20.2 9 Nordeste 18 Nordeste 0 -- -- 47
2019-07-27 23:00:00 21.1 5 Norte 19 Norte 0 -- -- 44
2019-07-26 12:00:00 28.6 9 Sudoeste 27 Sudoeste 0 -- -- 45
2019-07-26 11:00:00 26.8 15 Sudoeste 27 Sudoeste 0 -- -- 49
2019-07-26 10:00:00 25.1 12 Sudoeste 21 Sudoeste 0 -- -- 52
2019-07-26 09:00:00 23.8 3 Sur 18 Oeste 0 -- -- 55
2019-07-26 08:00:00 22.8 6 Sudoeste 15 Sudoeste 0 -- -- 52
2019-07-26 07:00:00 23.2 8 Sudoeste 18 Sudoeste 0 -- -- 50
2019-07-26 06:00:00 24.1 0 Calma 14 Oeste 0 -- -- 43
2019-07-26 05:00:00 24.5 6 Oeste 13 Oeste 0 -- -- 40
2019-07-26 04:00:00 25.6 2 Sudoeste 14 Sudoeste 0 -- -- 38
2019-07-26 03:00:00 25.6 3 Sur 7 Sur 0 -- -- 37
2019-07-26 02:00:00 25 2 Sur 6 Sudeste 0 -- -- 37
2019-07-26 01:00:00 24.8 4 Sur 6 Sur 0 -- -- 36
2019-07-26 00:00:00 25.4 2 Sudoeste 8 Oeste 0 -- -- 34
2019-07-25 23:00:00 27.8 3 Oeste 17 Oeste 0 -- -- 32
2019-07-25 22:00:00 30 9 Oeste 21 Oeste 0 -- -- 31
2019-07-25 21:00:00 31.7 15 Oeste 34 Oeste 0 -- -- 30
2019-07-25 20:00:00 34 18 Oeste 33 Sudoeste 0 -- -- 28
2019-07-25 19:00:00 35.9 19 Oeste 35 Sudoeste 0 -- -- 27
2019-07-25 18:00:00 36.3 14 Sudoeste 35 Sudoeste 0 -- -- 26
2019-07-25 17:00:00 36 6 Sur 37 Sudoeste 0 -- -- 27
2019-07-25 16:00:00 36.1 11 Sudoeste 37 Oeste 0 -- -- 28
2019-07-25 15:00:00 34.6 6 Sudoeste 39 Sudoeste 0 -- -- 29
2019-07-25 14:00:00 34.3 12 Sudoeste 32 Sudoeste 0 -- -- 30
2019-07-25 13:00:00 34 6 Oeste 17 Oeste 0 -- -- 32
2019-07-25 12:00:00 31.4 3 Sur 13 Oeste 0 -- -- 33
2019-07-25 11:00:00 30 0 Calma 11 Noroeste 0 -- -- 35
2019-07-25 10:00:00 28.4 3 Oeste 9 Oeste 0 -- -- 38
2019-07-25 09:00:00 26.6 5 Este 10 Nordeste 0 -- -- 40
2019-07-25 08:00:00 21.5 3 Nordeste 10 Este 0 -- -- 44
2019-07-25 07:00:00 23.1 2 Noroeste 18 Este 0 -- -- 40
2019-07-25 06:00:00 24.1 9 Este 14 Este 0 -- -- 40
2019-07-25 05:00:00 23.7 4 Norte 11 Oeste 0 -- -- 37
2019-07-25 04:00:00 26.1 5 Noroeste 17 Sudeste 0 -- -- 34
2019-07-25 03:00:00 27.9 8 Sudeste 21 Sur 0 -- -- 32
2019-07-25 02:00:00 28.8 8 Sudeste 19 Sudeste 0 -- -- 31
2019-07-25 01:00:00 30 10 Sudeste 27 Sudeste 0 -- -- 31